Terminal Aerodrome Forecast
Issued by NWS Boise, ID

Home | Current Version | Previous Version | Text Only | Print | Product List | Glossary On
Versions: 1 2 3 4 5 6 7 8 9 10 11 12 13 14 15
000
FTUS45 KBOI 251513 AAA
TAFBNO
TAF AMD
KBNO 251513Z 2515/2612 VRB05KT P6SM BKN150
     FM251900 17025G35KT P6SM BKN120
     FM260200 18015G25KT P6SM -SHRA SCT030 OVC050
     FM260900 23014KT P6SM VCSH SCT040 OVC070=

USA.gov is the U.S. government's official web portal to all federal, state and local government web resources and services.